Flight Track Log - Related Links

Times and Time Zones

All times are in EDT time to prevent confusion due to time zone crossing. See the USC105 flight status page for this flight to view local times or setup timezone preferences in your user account.

Time Position Orientation Groundspeed Altitude Reporting Facility
EDT Latitude Longitude Course Direction KTS MPH feet Rate Location/Type
Mon 10:03:15 PM 39.8194 -82.9247 24° Northeast 118 136 900  Level Indianapolis Center
Mon 10:04:22 PM 39.8544 -82.9042 24° Northeast 136 157 2,000 1,027 Climbing Indianapolis Center
Mon 10:05:06 PM 39.8850 -82.9081 354° North 145 167 2,800 984 Climbing Indianapolis Center
Mon 10:05:23 PM 39.8958 -82.9117 346° North 151 174 3,000 935 Climbing Indianapolis Center
Mon 10:06:23 PM 39.9342 -82.8997 13° North 145 167 4,000 1,041 Climbing Indianapolis Center
Mon 10:07:24 PM 39.9717 -82.8714 30° Northeast 152 175 5,100 962 Climbing Indianapolis Center
Mon 10:08:09 PM 39.9969 -82.8508 32° Northeast 150 173 5,700 983 Climbing Indianapolis Center
Mon 10:09:20 PM 40.0400 -82.8192 29° Northeast 145 167 7,000 639 Climbing Indianapolis Center
Mon 10:10:11 PM 40.0731 -82.7928 31° Northeast 164 189 7,000  Level Indianapolis Center
Mon 10:11:12 PM 40.1172 -82.7569 32° Northeast 184 212 7,000  Level Indianapolis Center
Mon 10:12:13 PM 40.1636 -82.7247 28° Northeast 188 216 7,000  Level Indianapolis Center
Mon 10:13:14 PM 40.2128 -82.6894 29° Northeast 199 229 7,000  Level Indianapolis Center
Mon 10:14:15 PM 40.2608 -82.6547 29° Northeast 202 232 7,000  Level Indianapolis Center
Mon 10:15:16 PM 40.3092 -82.6156 32° Northeast 203 234 7,000  Level Indianapolis Center
Mon 10:16:17 PM 40.3600 -82.5817 27° Northeast 203 234 7,000  Level Indianapolis Center
Mon 10:17:18 PM 40.4072 -82.5431 32° Northeast 199 229 7,000  Level Indianapolis Center
Mon 10:18:19 PM 40.4550 -82.5069 30° Northeast 197 227 7,000 -49 Level Indianapolis Center
Mon 10:19:20 PM 40.5022 -82.4675 32° Northeast 198 228 6,900  Descending Indianapolis Center
Mon 10:20:21 PM 40.5575 -82.4256 30° Northeast 197 227 7,000 49 Climbing Indianapolis Center
Mon 10:21:22 PM 40.6056 -82.3894 30° Northeast 196 226 7,000 -298 Level Indianapolis Center
Mon 10:22:22 PM 40.6544 -82.3522 30° Northeast 200 230 6,400 -694 Descending Indianapolis Center
Mon 10:23:23 PM 40.7072 -82.3142 29° Northeast 212 244 5,600 -689 Descending Indianapolis Center
Mon 10:24:24 PM 40.7631 -82.2697 31° Northeast 228 262 5,000 -295 Descending Indianapolis Center
Mon 10:25:25 PM 40.8164 -82.2294 30° Northeast 222 255 5,000  Level Indianapolis Center
Mon 10:26:26 PM 40.8692 -82.1886 30° Northeast 218 251 5,000  Level Indianapolis Center
Mon 10:27:34 PM 40.9278 -82.1469 28° Northeast 218 251 5,000  Level Cleveland Center
Mon 10:28:28 PM 40.9761 -82.1094 30° Northeast 218 251 5,000 -209 Level Cleveland Center
Mon 10:29:29 PM 41.0250 -82.0583 38° Northeast 231 266 4,600 -495 Descending Cleveland Center
Mon 10:30:17 PM 41.0569 -82.0039 52° Northeast 237 273 4,100 -550 Descending Cleveland Center
Mon 10:31:18 PM 41.1014 -81.9469 44° Northeast 230 265 3,600 -545 Descending Cleveland Center
Mon 10:32:18 PM 41.1519 -81.8931 39° Northeast 230 265 3,000 -283 Descending Cleveland Center
Mon 10:33:25 PM 41.2028 -81.8333 41° Northeast 210 242 3,000  Level Cleveland Center
Mon 10:34:26 PM 41.2469 -81.7844 40° Northeast 204 235 3,000  Level Cleveland Center
Mon 10:35:26 PM 41.2994 -81.7578 21° North 206 237 3,000  Level Cleveland Center
Mon 10:36:27 PM 41.3517 -81.7367 17° North 199 229 3,000 -295 Level Cleveland Center
Mon 10:37:28 PM 41.4103 -81.7072 21° North 206 237 2,400 -496 Descending Cleveland Center
Mon 10:38:28 PM 41.4586 -81.6719 29° Northeast 191 220 2,000 -298 Descending Cleveland Center
Mon 10:39:29 PM 41.5006 -81.6478 23° Northeast 169 194 1,800 -347 Descending Cleveland Center
Mon 10:40:29 PM 41.5317 -81.6539 352° North 134 154 1,300 -500 Descending Cleveland Center

Login

Don't have an account? Register now (free) for customized features, flight alerts, and more!